createdAt,value
2024-03-02T00:03:38.792Z,652.81
2024-03-02T00:08:58.597Z,0
2024-03-02T00:14:18.923Z,0
2024-03-02T00:19:36.951Z,649.26
2024-03-02T00:24:55.896Z,652.81
2024-03-02T00:30:15.184Z,648.26
2024-03-02T00:35:34.347Z,649.26
2024-03-02T00:40:53.643Z,652.81
2024-03-02T00:46:13.456Z,652.81
2024-03-02T00:56:51.986Z,652.81
2024-03-02T01:02:11.291Z,652.81
2024-03-02T01:07:31.007Z,648.26
2024-03-02T01:12:49.845Z,652.81
2024-03-02T01:18:09.024Z,652.81
2024-03-02T01:28:48.314Z,652.81
2024-03-02T01:34:07.755Z,652.81
2024-03-02T01:39:26.416Z,648.26
2024-03-02T01:44:45.508Z,649.26
2024-03-02T01:50:04.983Z,0
2024-03-02T01:55:23.699Z,652.81
2024-03-02T02:00:43.403Z,0
2024-03-02T02:06:02.856Z,0
2024-03-02T02:11:21.984Z,652.81
2024-03-02T02:16:41.906Z,0
2024-03-02T02:22:01.651Z,649.26
2024-03-02T02:27:21.085Z,652.81
2024-03-02T02:32:40.795Z,652.81
2024-03-02T02:37:59.849Z,652.81
2024-03-02T02:43:19.167Z,651.81
2024-03-02T02:48:38.819Z,651.48
2024-03-02T02:53:59.289Z,652.81
2024-03-02T03:04:36.740Z,0
2024-03-02T03:09:56.302Z,651.81
2024-03-02T03:15:15.757Z,652.81
2024-03-02T03:20:35.339Z,649.26
2024-03-02T03:25:54.544Z,649.26
2024-03-02T03:31:14.457Z,652.81
2024-03-02T03:36:33.926Z,652.81
2024-03-02T03:43:32.501Z,649.26
2024-03-02T03:47:12.686Z,652.81
2024-03-02T03:52:31.154Z,649.26
2024-03-02T03:57:50.747Z,652.81
2024-03-02T04:03:10.782Z,652.81
2024-03-02T04:08:30.580Z,652.81
2024-03-02T04:19:08.707Z,0
2024-03-02T04:24:27.688Z,652.81
2024-03-02T04:29:47.208Z,649.26
2024-03-02T04:35:06.135Z,0
2024-03-02T04:45:45.962Z,0
2024-03-02T04:51:04.809Z,650.26
2024-03-02T04:56:24.455Z,649.26
2024-03-02T05:02:58.584Z,649.26
2024-03-02T05:07:15.098Z,0
2024-03-02T05:17:41.273Z,0
2024-03-02T05:28:20.229Z,0
2024-03-02T05:38:59.606Z,0
2024-03-02T05:44:19.291Z,478.19
2024-03-02T05:54:57.652Z,0
2024-03-02T06:00:17.400Z,478.08
2024-03-02T06:05:36.924Z,423.31
2024-03-02T06:10:55.868Z,652.81
2024-03-02T06:16:15.706Z,573.76
2024-03-02T06:21:34.469Z,470.76
2024-03-02T06:26:53.640Z,0
2024-03-02T06:32:12.957Z,438.61
2024-03-02T06:37:32.047Z,0
2024-03-02T06:42:50.853Z,420.76
2024-03-02T06:53:29.304Z,558.46
2024-03-02T06:58:48.215Z,446.26
2024-03-02T07:04:08.258Z,632.41
2024-03-02T07:09:26.576Z,498.48
2024-03-02T07:14:45.986Z,413.11
2024-03-02T07:20:05.275Z,0
2024-03-02T07:30:44.150Z,415.66
2024-03-02T07:36:04.409Z,634.96
2024-03-02T07:41:21.221Z,502.36
2024-03-02T07:46:40.974Z,0
2024-03-02T07:51:59.259Z,466.66
2024-03-02T07:57:19.014Z,0
2024-03-02T08:02:37.682Z,0
2024-03-02T08:07:56.520Z,395.26
2024-03-02T08:13:16.225Z,0
2024-03-02T08:18:35.939Z,0
2024-03-02T08:23:54.802Z,0
2024-03-02T08:29:14.030Z,451.36
2024-03-02T08:34:33.183Z,629.86
2024-03-02T08:39:52.095Z,510.01
2024-03-02T08:45:11.321Z,410.56
2024-03-02T08:50:30.383Z,634.96
2024-03-02T08:55:49.722Z,489.61
2024-03-02T09:01:08.846Z,397.82
2024-03-02T09:06:28.323Z,650.26
2024-03-02T09:11:47.184Z,474.32
2024-03-02T09:17:06.359Z,0
2024-03-02T09:27:45.670Z,612.01
2024-03-02T09:38:24.830Z,583.96
2024-03-02T09:43:44.007Z,567.94
2024-03-02T09:49:02.157Z,33.1
2024-03-02T09:54:22.063Z,649.52
2024-03-02T09:59:40.006Z,564.99
2024-03-02T10:04:59.618Z,422.26
2024-03-02T10:10:18.672Z,396.81
2024-03-02T10:15:37.621Z,235.58
2024-03-02T10:20:57.152Z,202.69
2024-03-02T10:26:16.519Z,193.19
2024-03-02T10:31:34.845Z,214.9
2024-03-02T10:36:54.559Z,310.1
2024-03-02T10:42:13.542Z,471.63
2024-03-02T10:52:51.581Z,363.61
2024-03-02T10:58:09.969Z,566.54
2024-03-02T11:08:48.985Z,413.55
2024-03-02T11:14:09.399Z,90.12
2024-03-02T11:19:28.178Z,214
2024-03-02T11:24:47.794Z,201.82
2024-03-02T11:30:08.351Z,176.34
2024-03-02T11:35:25.844Z,61.63
2024-03-02T11:40:44.990Z,568.69
2024-03-02T11:51:23.439Z,409.32
2024-03-02T11:56:42.363Z,649.93
2024-03-02T12:02:02.710Z,625.08
2024-03-02T12:07:21.698Z,621.86
2024-03-02T12:12:41.229Z,5.11
2024-03-02T12:18:00.419Z,352.9
2024-03-02T12:23:19.377Z,380.26
2024-03-02T12:28:38.761Z,318.2
2024-03-02T12:33:58.400Z,240.53
2024-03-02T12:44:36.390Z,343.15
2024-03-02T12:49:55.772Z,394.48
2024-03-02T12:55:14.719Z,408.21
2024-03-02T13:00:34.100Z,374.27
2024-03-02T13:05:53.613Z,236.4
2024-03-02T13:11:13.006Z,80.57
2024-03-02T13:16:33.072Z,619.05
2024-03-02T13:27:10.767Z,654.71
2024-03-02T13:38:23.947Z,556.22
2024-03-02T13:43:42.767Z,500.49
2024-03-02T13:49:01.575Z,595.07
2024-03-02T13:54:20.899Z,435.68
2024-03-02T13:59:39.968Z,381.3
2024-03-02T14:04:59.003Z,366
2024-03-02T14:10:18.739Z,275.62
2024-03-02T14:15:38.310Z,300.22
2024-03-02T14:20:57.542Z,300.04
2024-03-02T14:26:17.135Z,291.82
2024-03-02T14:31:36.016Z,262.26
2024-03-02T14:36:55.340Z,251.65
2024-03-02T14:42:14.091Z,233.28
2024-03-02T14:47:33.388Z,230.08
2024-03-02T14:52:52.655Z,212.05
2024-03-02T15:03:30.868Z,162.31
2024-03-02T15:08:49.885Z,144.98
2024-03-02T15:14:08.622Z,116.58
2024-03-02T15:19:27.655Z,112.55
2024-03-02T15:24:46.844Z,105.94
2024-03-02T15:30:06.035Z,98.95
2024-03-02T15:35:24.930Z,88.14
2024-03-02T15:40:43.691Z,84.06
2024-03-02T15:46:03.985Z,72.73
2024-03-02T15:51:21.864Z,66.34
2024-03-02T15:56:41.291Z,61.47
2024-03-02T16:02:00.707Z,60.89
2024-03-02T16:07:20.119Z,59.71
2024-03-02T16:12:39.605Z,58.63
2024-03-02T16:17:59.552Z,51.44
2024-03-02T16:24:33.729Z,45.4
2024-03-02T16:28:37.213Z,43.6
2024-03-02T16:39:15.299Z,36.66
2024-03-02T16:44:34.101Z,32.07
2024-03-02T16:55:12.695Z,26.81
2024-03-02T17:00:31.937Z,21.35
2024-03-02T17:05:51.400Z,20.78
2024-03-02T17:11:10.723Z,10
2024-03-02T17:16:29.742Z,4
2024-03-02T17:21:48.841Z,0
2024-03-02T17:27:08.735Z,0
2024-03-02T17:32:28.288Z,0
2024-03-02T17:37:47.960Z,0
2024-03-02T17:43:08.362Z,0
2024-03-02T17:48:26.385Z,0
2024-03-02T17:53:46.067Z,0
2024-03-02T17:59:04.906Z,0
2024-03-02T18:09:44.346Z,0
2024-03-02T18:15:01.934Z,0
2024-03-02T18:20:21.736Z,0
2024-03-02T18:25:41.163Z,0
2024-03-02T18:31:00.936Z,0
2024-03-02T18:36:20.609Z,0
2024-03-02T18:41:39.984Z,0
2024-03-02T18:46:59.610Z,0
2024-03-02T18:53:33.756Z,0
2024-03-02T18:57:36.877Z,0
2024-03-02T19:02:55.863Z,0
2024-03-02T19:08:14.984Z,0
2024-03-02T19:13:34.622Z,0
2024-03-02T19:18:53.665Z,0
2024-03-02T19:24:13.351Z,0
2024-03-02T19:29:32.595Z,0
2024-03-02T19:34:51.853Z,0
2024-03-02T19:40:13.420Z,0
2024-03-02T19:45:30.286Z,0
2024-03-02T19:56:09.254Z,0
2024-03-02T20:01:29.140Z,0
2024-03-02T20:06:48.103Z,0
2024-03-02T20:12:08.284Z,0
2024-03-02T20:17:26.366Z,0
2024-03-02T20:22:46.660Z,0
2024-03-02T20:28:05.139Z,0
2024-03-02T20:33:24.380Z,0
2024-03-02T20:38:43.172Z,0
2024-03-02T20:44:02.914Z,0
2024-03-02T20:49:22.306Z,0
2024-03-02T20:54:41.858Z,0
2024-03-02T21:00:01.400Z,0
2024-03-02T21:05:20.536Z,0
2024-03-02T21:10:40.599Z,0
2024-03-02T21:15:59.527Z,0
2024-03-02T21:21:19.286Z,0
2024-03-02T21:26:37.159Z,0
2024-03-02T21:31:56.456Z,0
2024-03-02T21:37:16.397Z,0
2024-03-02T21:42:35.869Z,0
2024-03-02T21:53:14.419Z,0
2024-03-02T21:58:33.839Z,0
2024-03-02T22:03:52.787Z,0
2024-03-02T22:09:12.294Z,0
2024-03-02T22:14:31.320Z,0
2024-03-02T22:19:50.956Z,0
2024-03-02T22:25:09.222Z,0
2024-03-02T22:30:28.382Z,0
2024-03-02T22:35:47.947Z,0
2024-03-02T22:41:07.877Z,0
2024-03-02T22:46:26.218Z,0
2024-03-02T22:51:45.615Z,0
2024-03-02T23:02:25.210Z,0
2024-03-02T23:07:43.393Z,0
2024-03-02T23:13:02.476Z,0
2024-03-02T23:18:21.866Z,0
2024-03-02T23:23:42.304Z,0
2024-03-02T23:29:00.902Z,0
2024-03-02T23:34:21.261Z,0
2024-03-02T23:39:40.537Z,0
2024-03-02T23:44:59.622Z,0
2024-03-02T23:50:18.565Z,0
